Time;durP1;ratioP1;P1;durP2;ratioP2;P2;SDS_P1;SDS_P2;PMS_P1;PMS_P2;Temp;Humidity;BMP_temperature;BMP_pressure;BME280_temperature;BME280_humidity;BME280_pressure;Samples;Min_cycle;Max_cycle;Signal;HPM_P1;HPM_P2
2021/10/22 00:00:47;;;;;;;18.08;10.07;;;;;;;10.45;64.40;95592.28;5029374;28;20540;-76
2021/10/22 00:03:13;;;;;;;15.73;10.27;;;;;;;10.48;63.91;95589.28;5029972;28;20470;-73
2021/10/22 00:05:39;;;;;;;17.13;9.73;;;;;;;10.48;63.98;95601.88;5029180;28;20029;-74
2021/10/22 00:08:04;;;;;;;22.45;12.32;;;;;;;10.45;64.39;95603.03;5029528;28;20697;-75
2021/10/22 00:10:30;;;;;;;18.77;11.45;;;;;;;10.43;64.77;95602.34;5029235;28;20113;-75
2021/10/22 00:12:55;;;;;;;17.48;10.95;;;;;;;10.28;65.38;95602.25;5029330;28;20132;-75
2021/10/22 00:15:21;;;;;;;17.70;10.85;;;;;;;10.19;65.60;95601.41;5029292;28;20087;-74
2021/10/22 00:17:47;;;;;;;18.98;10.65;;;;;;;10.12;65.78;95603.91;5029480;28;20029;-76
2021/10/22 00:20:12;;;;;;;16.40;10.77;;;;;;;10.09;65.64;95603.44;5028102;28;20021;-74
2021/10/22 00:22:38;;;;;;;18.02;10.88;;;;;;;10.00;66.07;95605.28;5028991;28;20030;-74
2021/10/22 00:25:04;;;;;;;16.77;10.77;;;;;;;9.85;66.62;95605.97;5029289;28;20036;-74
2021/10/22 00:27:30;;;;;;;19.70;11.10;;;;;;;9.89;66.41;95604.63;5027771;28;20029;-75
2021/10/22 00:29:55;;;;;;;18.67;10.82;;;;;;;9.95;66.44;95604.94;5029053;28;20457;-75
2021/10/22 00:32:20;;;;;;;17.10;11.25;;;;;;;9.99;66.47;95608.97;5028631;28;20573;-75
2021/10/22 00:34:46;;;;;;;18.20;11.80;;;;;;;9.97;66.54;95609.16;5027837;28;20033;-75
2021/10/22 00:37:11;;;;;;;17.33;10.70;;;;;;;9.96;66.29;95610.13;5028982;28;20036;-75
2021/10/22 00:39:37;;;;;;;18.95;12.07;;;;;;;9.90;66.78;95610.81;5029372;28;20028;-75
2021/10/22 00:42:03;;;;;;;17.80;11.43;;;;;;;9.95;66.55;95616.50;5028314;28;20021;-74
2021/10/22 00:44:29;;;;;;;16.25;11.48;;;;;;;10.01;66.08;95607.78;5027172;28;20029;-75
2021/10/22 00:46:55;;;;;;;20.25;11.27;;;;;;;9.96;65.90;95603.97;5029144;28;20079;-74
2021/10/22 00:49:21;;;;;;;17.58;11.25;;;;;;;9.94;65.74;95611.31;5028239;28;20041;-75
2021/10/22 00:51:47;;;;;;;18.45;11.82;;;;;;;9.88;66.41;95612.84;5028769;28;20040;-74
2021/10/22 00:54:12;;;;;;;18.75;11.57;;;;;;;9.84;66.62;95614.16;5026832;28;20029;-74
2021/10/22 00:56:38;;;;;;;18.10;11.73;;;;;;;9.77;66.76;95612.16;5010902;28;20030;-75
2021/10/22 00:59:06;;;;;;;19.13;11.68;;;;;;;9.72;66.78;95608.31;5028665;28;20491;-74
2021/10/22 01:01:39;;;;;;;15.80;10.13;;;;;;;9.73;66.00;95612.66;5028388;28;20021;-74
2021/10/22 01:04:08;;;;;;;16.48;10.35;;;;;;;9.73;66.43;95610.84;5027006;28;20054;-75
2021/10/22 01:06:38;;;;;;;19.50;11.00;;;;;;;9.74;66.22;95611.66;5028074;28;20534;-74
2021/10/22 01:09:10;;;;;;;19.15;10.75;;;;;;;9.71;66.48;95617.34;5027282;28;20508;-74
2021/10/22 01:11:36;;;;;;;17.42;9.73;;;;;;;9.75;66.09;95611.47;5026959;28;20498;-76
2021/10/22 01:14:02;;;;;;;16.88;10.70;;;;;;;9.70;65.99;95610.31;5027132;28;20478;-75
2021/10/22 01:16:27;;;;;;;24.50;13.95;;;;;;;9.59;66.33;95612.31;5028392;28;20037;-74
2021/10/22 01:18:52;;;;;;;20.50;12.43;;;;;;;9.59;66.71;95620.34;5028450;28;20026;-74
2021/10/22 01:21:18;;;;;;;17.88;11.25;;;;;;;9.51;66.13;95621.19;5028114;28;20025;-75
2021/10/22 01:23:43;;;;;;;17.95;11.20;;;;;;;9.51;66.32;95613.16;5027655;28;20071;-75
2021/10/22 01:26:09;;;;;;;18.35;10.68;;;;;;;9.52;66.21;95619.34;5028145;28;20033;-74
2021/10/22 01:28:35;;;;;;;18.13;10.52;;;;;;;9.52;66.32;95625.56;5027610;28;20071;-75
2021/10/22 01:31:01;;;;;;;17.75;10.65;;;;;;;9.50;66.08;95616.84;5028147;28;20018;-75
2021/10/22 01:33:27;;;;;;;17.27;11.02;;;;;;;9.47;66.67;95619.00;5027917;28;20025;-74
2021/10/22 01:35:52;;;;;;;17.75;11.40;;;;;;;9.47;65.77;95621.69;5028950;28;20025;-74
2021/10/22 01:38:22;;;;;;;20.55;11.38;;;;;;;9.48;66.34;95623.38;5029382;28;20024;-74
2021/10/22 01:40:49;;;;;;;19.45;11.32;;;;;;;9.47;66.75;95627.88;5027114;28;20029;-75
2021/10/22 01:43:15;;;;;;;19.98;10.63;;;;;;;9.48;66.59;95626.88;5026586;28;20159;-74
2021/10/22 01:45:40;;;;;;;18.00;10.43;;;;;;;9.49;67.03;95625.88;5026205;28;20131;-75
2021/10/22 01:48:06;;;;;;;16.42;10.48;;;;;;;9.47;67.31;95617.16;5026492;28;20029;-74
2021/10/22 01:50:31;;;;;;;17.10;10.50;;;;;;;9.47;66.49;95614.50;5027100;28;20022;-75
2021/10/22 01:52:57;;;;;;;16.63;11.35;;;;;;;9.42;66.07;95610.63;5026231;28;20503;-74
2021/10/22 01:55:23;;;;;;;19.75;11.48;;;;;;;9.40;65.63;95613.47;5027675;28;20041;-74
2021/10/22 01:57:48;;;;;;;19.40;11.52;;;;;;;9.31;66.43;95617.13;5009473;28;20041;-76
2021/10/22 02:00:14;;;;;;;20.92;13.57;;;;;;;9.23;66.92;95621.50;5028000;28;20026;-74
2021/10/22 02:02:39;;;;;;;24.65;13.77;;;;;;;9.18;66.96;95622.97;5034183;28;20108;-75
2021/10/22 02:05:05;;;;;;;21.33;13.48;;;;;;;9.16;67.56;95615.09;5027768;28;20037;-74
2021/10/22 02:07:31;;;;;;;19.00;12.40;;;;;;;9.21;67.35;95622.63;5008988;28;20076;-74
2021/10/22 02:09:56;;;;;;;23.52;13.27;;;;;;;9.14;67.71;95617.13;5027442;28;20029;-76
2021/10/22 02:12:22;;;;;;;26.25;14.48;;;;;;;9.10;67.65;95629.13;5009246;28;20545;-74
2021/10/22 02:14:47;;;;;;;22.33;14.02;;;;;;;9.09;67.79;95620.25;5027161;28;20033;-75
2021/10/22 02:17:13;;;;;;;20.08;13.13;;;;;;;9.05;68.35;95626.94;5027555;28;20480;-75
2021/10/22 02:19:38;;;;;;;22.13;13.43;;;;;;;9.07;67.84;95632.13;5026587;28;20033;-74
2021/10/22 02:22:04;;;;;;;21.85;12.50;;;;;;;9.11;67.62;95636.16;5025824;28;20037;-76
2021/10/22 02:24:29;;;;;;;23.20;14.77;;;;;;;9.06;68.44;95633.16;5025029;28;20451;-75
2021/10/22 02:26:55;;;;;;;26.80;15.90;;;;;;;8.98;68.25;95634.78;5026863;28;20445;-76
2021/10/22 02:29:20;;;;;;;22.17;13.57;;;;;;;8.97;67.45;95634.94;5025494;28;20033;-75
2021/10/22 02:31:46;;;;;;;22.45;13.50;;;;;;;8.91;67.68;95644.47;5026737;28;20025;-76
2021/10/22 02:34:11;;;;;;;23.60;14.80;;;;;;;8.82;67.57;95650.78;5027009;28;20571;-75
2021/10/22 02:36:37;;;;;;;23.92;14.85;;;;;;;8.81;67.37;95651.78;5026319;28;20040;-74
2021/10/22 02:39:03;;;;;;;23.52;15.20;;;;;;;8.62;67.71;95657.22;5025908;28;20026;-75
2021/10/22 02:41:28;;;;;;;25.73;16.08;;;;;;;8.61;68.16;95654.69;5024757;28;20036;-76
2021/10/22 02:43:54;;;;;;;26.90;17.38;;;;;;;8.60;68.37;95642.31;5025724;28;20037;-74
2021/10/22 02:46:19;;;;;;;29.55;16.55;;;;;;;8.65;68.72;95651.56;5026216;28;20107;-75
2021/10/22 02:48:44;;;;;;;30.33;16.67;;;;;;;8.64;68.66;95659.72;5026597;28;20395;-73
2021/10/22 02:51:10;;;;;;;26.63;15.60;;;;;;;8.62;68.66;95656.38;5025275;28;20475;-74
2021/10/22 02:53:36;;;;;;;30.05;16.65;;;;;;;8.59;68.71;95662.03;5024770;28;20067;-75
2021/10/22 02:56:01;;;;;;;31.38;17.73;;;;;;;8.59;69.03;95662.84;5025620;28;20030;-75
2021/10/22 02:58:27;;;;;;;28.90;17.02;;;;;;;8.62;68.85;95664.41;5026087;28;20025;-75
2021/10/22 03:00:52;;;;;;;28.83;17.25;;;;;;;8.62;68.49;95662.56;5026427;28;20021;-74
2021/10/22 03:03:17;;;;;;;25.50;16.45;;;;;;;8.60;69.06;95669.06;5026282;28;20026;-75
2021/10/22 03:05:43;;;;;;;28.02;16.23;;;;;;;8.64;68.75;95673.09;5025748;28;20059;-75
2021/10/22 03:08:09;;;;;;;26.65;16.95;;;;;;;8.65;68.27;95672.09;5024674;28;20069;-74
2021/10/22 03:10:34;;;;;;;31.05;18.42;;;;;;;8.63;68.19;95679.44;5025291;28;20033;-74
2021/10/22 03:13:01;;;;;;;37.47;19.30;;;;;;;8.62;68.56;95680.44;5026163;28;20037;-73
2021/10/22 03:15:26;;;;;;;29.58;17.23;;;;;;;8.57;68.85;95672.88;5026085;28;20032;-75
2021/10/22 03:17:52;;;;;;;28.92;18.52;;;;;;;8.56;68.74;95675.72;5025131;28;20029;-75
2021/10/22 03:20:17;;;;;;;31.70;18.90;;;;;;;8.55;68.22;95679.38;5025804;28;20029;-74
2021/10/22 03:22:43;;;;;;;31.83;18.92;;;;;;;8.47;69.20;95674.78;5026067;28;20029;-75
2021/10/22 03:25:08;;;;;;;31.90;18.38;;;;;;;8.44;68.85;95667.09;5025516;28;20523;-74
2021/10/22 03:27:34;;;;;;;31.73;18.05;;;;;;;8.46;69.12;95668.63;5024993;28;20026;-74
2021/10/22 03:30:00;;;;;;;29.77;16.90;;;;;;;8.44;69.47;95675.09;5024584;28;20029;-74
2021/10/22 03:32:25;;;;;;;26.60;17.10;;;;;;;8.43;69.30;95682.28;5026040;28;20076;-74
2021/10/22 03:34:51;;;;;;;23.60;16.25;;;;;;;8.46;69.81;95679.31;5025425;28;20036;-74
2021/10/22 03:37:16;;;;;;;31.58;16.60;;;;;;;8.47;69.86;95681.00;5030000;28;20033;-74
2021/10/22 03:39:42;;;;;;;25.95;15.55;;;;;;;8.54;69.33;95678.53;5039547;28;20502;-75
2021/10/22 03:42:07;;;;;;;24.95;15.35;;;;;;;8.50;70.19;95675.31;5024111;28;20075;-75
2021/10/22 03:44:33;;;;;;;25.30;15.10;;;;;;;8.52;70.21;95678.69;5008258;28;20071;-75
2021/10/22 03:46:58;;;;;;;27.38;16.23;;;;;;;8.52;69.93;95673.34;5025391;28;20026;-76
2021/10/22 03:49:24;;;;;;;39.38;23.20;;;;;;;8.56;69.61;95683.75;5040667;28;20032;-73
2021/10/22 03:51:49;;;;;;;53.40;27.25;;;;;;;8.52;69.48;95691.19;5045703;28;20055;-75
2021/10/22 03:54:15;;;;;;;32.72;19.75;;;;;;;8.54;70.02;95686.53;5045437;28;20025;-76
2021/10/22 03:56:40;;;;;;;42.38;22.75;;;;;;;8.49;69.78;95687.03;5044781;28;20024;-74
2021/10/22 03:59:05;;;;;;;41.92;22.50;;;;;;;8.48;69.09;95681.84;5043809;28;20036;-74
2021/10/22 04:01:31;;;;;;;37.38;21.67;;;;;;;8.47;69.13;95683.66;5045898;28;20024;-76
2021/10/22 04:03:56;;;;;;;33.03;18.88;;;;;;;8.50;69.18;95680.66;5044993;28;20049;-74
2021/10/22 04:06:22;;;;;;;26.75;17.00;;;;;;;8.50;69.49;95683.34;5046009;28;20043;-74
2021/10/22 04:08:47;;;;;;;32.88;18.85;;;;;;;8.54;69.57;95689.22;5045415;28;20420;-74
2021/10/22 04:11:12;;;;;;;32.75;19.33;;;;;;;8.47;69.09;95699.69;5045348;28;20021;-75
2021/10/22 04:13:38;;;;;;;34.00;18.27;;;;;;;8.45;67.97;95701.69;5045799;28;20041;-74
2021/10/22 04:16:04;;;;;;;37.15;18.20;;;;;;;8.42;66.91;95693.97;5045633;28;20396;-75
2021/10/22 04:18:29;;;;;;;32.05;18.67;;;;;;;8.27;67.24;95697.22;5038173;28;20419;-75
2021/10/22 04:20:55;;;;;;;34.00;18.25;;;;;;;8.15;67.49;95693.13;5035251;28;20551;-75
2021/10/22 04:23:20;;;;;;;38.15;18.40;;;;;;;8.12;67.73;95688.09;5028204;28;20029;-76
2021/10/22 04:25:45;;;;;;;34.50;19.02;;;;;;;8.03;67.78;95689.84;5028729;28;20022;-74
2021/10/22 04:28:11;;;;;;;33.65;18.85;;;;;;;7.95;68.42;95687.94;5029246;28;20026;-75
2021/10/22 04:30:37;;;;;;;34.30;20.77;;;;;;;7.97;68.36;95687.81;5028046;28;20060;-73
2021/10/22 04:33:03;;;;;;;34.60;20.92;;;;;;;7.93;68.94;95689.13;5027757;28;20527;-75
2021/10/22 04:35:30;;;;;;;36.35;19.38;;;;;;;7.96;68.56;95688.81;5028122;28;20034;-75
2021/10/22 04:40:31;;;;;;;30.20;18.58;;;;;;;7.85;68.70;95689.88;5038348;28;20036;-75
2021/10/22 04:43:11;;;;;;;36.25;19.50;;;;;;;7.83;68.68;95694.53;5039806;28;20024;-75
2021/10/22 04:45:39;;;;;;;36.45;19.33;;;;;;;7.82;68.68;95687.53;5039832;28;20028;-75
2021/10/22 04:48:05;;;;;;;31.70;17.85;;;;;;;7.82;68.76;95698.22;5022592;28;20028;-74
2021/10/22 04:50:31;;;;;;;27.95;17.30;;;;;;;7.80;70.19;95701.03;5045726;28;20031;-74
2021/10/22 04:52:57;;;;;;;32.88;18.02;;;;;;;7.83;70.45;95695.38;5040830;28;20036;-74
2021/10/22 04:55:23;;;;;;;34.33;18.35;;;;;;;7.79;70.35;95694.00;5027681;28;20033;-75
2021/10/22 04:57:50;;;;;;;30.40;17.05;;;;;;;7.77;70.20;95702.16;5036857;28;20450;-74
2021/10/22 05:00:15;;;;;;;30.45;16.83;;;;;;;7.72;70.11;95709.78;5045414;28;20079;-74
2021/10/22 05:02:41;;;;;;;30.13;16.30;;;;;;;7.64;69.62;95712.41;5046710;28;20025;-73
2021/10/22 05:05:06;;;;;;;30.95;17.60;;;;;;;7.57;70.13;95697.97;5046843;28;20427;-73
2021/10/22 05:07:32;;;;;;;26.98;16.45;;;;;;;7.56;69.87;95705.13;5046720;28;20231;-73
2021/10/22 05:09:58;;;;;;;34.13;16.70;;;;;;;7.52;70.08;95703.75;5025251;28;20053;-74
2021/10/22 05:12:24;;;;;;;35.78;17.50;;;;;;;7.61;69.64;95704.69;5015879;28;20044;-73
2021/10/22 05:14:50;;;;;;;36.60;17.70;;;;;;;7.61;69.99;95702.03;5037143;28;20028;-73
2021/10/22 05:17:15;;;;;;;31.33;17.40;;;;;;;7.66;69.69;95708.56;5046651;28;20043;-73
2021/10/22 05:19:41;;;;;;;27.00;16.55;;;;;;;7.68;69.69;95708.41;5045586;28;20032;-75
2021/10/22 05:22:06;;;;;;;29.30;15.35;;;;;;;7.77;69.37;95712.84;5045439;28;20029;-75
2021/10/22 05:24:31;;;;;;;28.83;16.77;;;;;;;7.88;68.93;95714.44;5047891;28;20029;-74
2021/10/22 05:26:57;;;;;;;29.08;16.75;;;;;;;7.91;68.96;95719.47;5048153;28;20033;-74
2021/10/22 05:29:22;;;;;;;35.58;17.10;;;;;;;7.94;68.20;95725.50;5045853;28;20032;-75
2021/10/22 05:31:48;;;;;;;34.20;16.50;;;;;;;8.00;67.79;95730.22;5030407;28;20025;-75
2021/10/22 05:34:13;;;;;;;40.42;17.08;;;;;;;8.01;67.27;95734.59;5047425;28;20048;-76
2021/10/22 05:36:39;;;;;;;37.13;17.75;;;;;;;8.09;66.99;95741.84;5047960;28;20082;-74
2021/10/22 05:39:04;;;;;;;36.70;18.70;;;;;;;8.07;67.24;95743.81;5047343;28;20074;-75
2021/10/22 05:41:30;;;;;;;35.72;18.33;;;;;;;8.19;66.49;95747.91;5047586;28;20474;-74
2021/10/22 05:43:55;;;;;;;41.22;20.42;;;;;;;8.23;65.87;95746.63;5047584;28;20032;-75
2021/10/22 05:46:21;;;;;;;39.80;19.58;;;;;;;8.26;65.81;95745.47;5047490;28;20029;-75
2021/10/22 05:48:47;;;;;;;28.65;20.10;;;;;;;8.33;65.66;95754.56;5030053;28;20024;-74
2021/10/22 05:51:13;;;;;;;45.72;21.15;;;;;;;8.35;65.67;95757.09;5046058;28;20048;-75
2021/10/22 05:53:39;;;;;;;40.38;21.02;;;;;;;8.43;65.71;95759.78;5029915;28;20048;-75
2021/10/22 05:56:04;;;;;;;36.17;20.02;;;;;;;8.59;65.16;95759.09;5046974;28;20032;-74
2021/10/22 05:58:30;;;;;;;42.53;19.50;;;;;;;8.75;65.11;95766.41;5046135;28;20032;-75
2021/10/22 06:00:56;;;;;;;36.92;20.77;;;;;;;8.88;64.91;95767.84;5045723;28;20029;-74
2021/10/22 06:03:21;;;;;;;45.45;22.05;;;;;;;9.17;64.42;95771.16;5046143;28;20501;-73
2021/10/22 06:05:52;;;;;;;45.15;20.67;;;;;;;9.34;63.42;95764.03;5047121;28;20041;-76
2021/10/22 06:08:18;;;;;;;47.28;20.30;;;;;;;9.43;63.84;95765.72;5047169;28;20029;-75
2021/10/22 06:10:44;;;;;;;36.22;22.40;;;;;;;9.49;64.03;95773.16;5045980;28;20511;-75
2021/10/22 06:13:10;;;;;;;48.25;25.58;;;;;;;9.63;64.18;95777.03;5045402;28;20048;-74
2021/10/22 06:15:35;;;;;;;52.90;27.88;;;;;;;9.80;63.49;95777.06;5045733;28;20104;-75
2021/10/22 06:18:01;;;;;;;51.15;29.08;;;;;;;9.95;63.72;95785.31;5046744;28;20033;-75
2021/10/22 06:20:29;;;;;;;37.60;24.63;;;;;;;10.19;63.57;95793.56;5046891;28;20458;-76
2021/10/22 06:25:42;;;;;;;44.78;25.33;;;;;;;10.61;62.44;95794.44;5046699;28;20029;-76
2021/10/22 06:28:11;;;;;;;51.50;24.52;;;;;;;10.67;61.87;95801.00;5013016;28;20448;-74
2021/10/22 06:30:37;;;;;;;38.35;22.25;;;;;;;10.89;62.04;95804.81;5044983;28;20029;-74
2021/10/22 06:33:02;;;;;;;39.65;22.90;;;;;;;10.94;61.67;95810.53;5045536;28;20074;-75
2021/10/22 06:35:28;;;;;;;33.10;20.27;;;;;;;11.19;61.28;95813.16;5046312;28;20033;-74
2021/10/22 06:37:55;;;;;;;34.42;22.73;;;;;;;11.39;60.58;95802.03;5046556;28;20462;-75
2021/10/22 06:40:21;;;;;;;43.63;19.88;;;;;;;11.68;59.91;95808.63;5045908;28;20107;-75
2021/10/22 06:42:46;;;;;;;32.33;20.73;;;;;;;11.79;60.03;95807.41;5045051;28;20052;-75
2021/10/22 06:45:12;;;;;;;36.97;21.48;;;;;;;12.08;58.98;95803.25;5045716;28;20087;-74
2021/10/22 06:47:37;;;;;;;39.00;22.98;;;;;;;12.23;58.25;95800.63;5044518;28;20078;-75
2021/10/22 06:50:04;;;;;;;35.10;22.40;;;;;;;12.42;58.19;95800.31;5028884;28;20033;-75
2021/10/22 06:52:30;;;;;;;34.53;21.80;;;;;;;12.58;57.80;95804.75;5046081;28;20048;-74
2021/10/22 06:54:56;;;;;;;37.47;22.08;;;;;;;12.66;57.88;95809.22;5046306;28;20032;-74
2021/10/22 06:57:21;;;;;;;31.48;19.13;;;;;;;12.78;57.46;95809.63;5044899;28;20021;-74
2021/10/22 06:59:47;;;;;;;29.88;20.33;;;;;;;12.88;57.36;95809.38;5046167;28;20032;-76
2021/10/22 07:02:12;;;;;;;38.33;20.15;;;;;;;12.96;57.02;95801.25;5046488;28;20090;-75
2021/10/22 07:04:47;;;;;;;35.25;18.85;;;;;;;13.12;57.15;95810.16;5045843;28;20082;-76
2021/10/22 07:07:15;;;;;;;35.05;19.17;;;;;;;13.29;56.52;95811.66;5045258;28;20087;-75
2021/10/22 07:09:44;;;;;;;27.05;17.42;;;;;;;13.46;56.30;95812.31;5045656;28;20028;-75
2021/10/22 07:12:10;;;;;;;26.35;17.50;;;;;;;13.68;55.61;95808.91;5045094;28;20486;-76
2021/10/22 07:14:37;;;;;;;26.45;16.65;;;;;;;13.76;55.55;95810.66;5028093;28;20025;-75
2021/10/22 07:17:04;;;;;;;23.40;15.07;;;;;;;13.89;55.16;95815.38;5044671;28;20064;-75
2021/10/22 07:19:34;;;;;;;27.90;14.60;;;;;;;13.93;55.54;95812.13;5046384;28;20025;-76
2021/10/22 07:22:05;;;;;;;23.90;14.68;;;;;;;14.12;55.11;95815.25;5044295;28;20435;-76
2021/10/22 07:24:31;;;;;;;19.70;13.05;;;;;;;14.08;55.16;95814.78;5035914;28;20056;-76
2021/10/22 07:26:59;;;;;;;20.30;13.82;;;;;;;13.99;55.47;95809.69;5033889;28;20025;-76
2021/10/22 07:29:24;;;;;;;19.20;13.85;;;;;;;13.91;55.48;95811.47;5025423;28;20105;-74
2021/10/22 07:31:50;;;;;;;23.52;13.73;;;;;;;14.12;55.40;95815.25;5033683;28;20116;-74
2021/10/22 07:34:18;;;;;;;23.77;15.13;;;;;;;14.25;55.02;95814.53;5023271;28;20025;-74
2021/10/22 07:36:46;;;;;;;30.25;17.35;;;;;;;14.48;55.52;95818.13;5028488;28;20381;-73
2021/10/22 07:39:11;;;;;;;29.40;18.42;;;;;;;14.44;54.72;95820.38;5045563;28;20458;-73
2021/10/22 07:41:36;;;;;;;27.55;16.17;;;;;;;14.59;55.11;95820.28;5045091;28;20513;-76
2021/10/22 07:44:02;;;;;;;25.83;15.63;;;;;;;14.56;55.27;95826.06;5038574;28;20025;-74
2021/10/22 07:46:27;;;;;;;23.88;15.35;;;;;;;14.46;54.89;95812.91;5027960;28;20036;-74
2021/10/22 07:48:53;;;;;;;20.55;14.50;;;;;;;14.45;54.96;95822.88;5044876;28;20021;-75
2021/10/22 07:51:18;;;;;;;20.70;14.13;;;;;;;14.50;55.50;95819.59;5043833;28;20036;-75
2021/10/22 07:53:44;;;;;;;25.17;14.93;;;;;;;14.55;55.36;95824.41;5047564;28;20422;-76
2021/10/22 07:56:09;;;;;;;24.20;14.57;;;;;;;14.53;54.78;95821.06;5049413;28;20036;-75
2021/10/22 07:58:35;;;;;;;22.85;15.65;;;;;;;14.56;54.80;95828.75;5048570;28;20364;-74
2021/10/22 08:01:02;;;;;;;18.75;14.25;;;;;;;14.49;54.85;95825.19;5045491;28;20114;-74
2021/10/22 08:03:28;;;;;;;24.88;13.88;;;;;;;14.44;54.85;95821.19;5048095;28;20029;-74
2021/10/22 08:05:54;;;;;;;24.13;15.52;;;;;;;14.55;55.19;95824.41;5048114;28;20071;-75
2021/10/22 08:08:19;;;;;;;22.95;14.35;;;;;;;14.65;54.69;95821.38;5049372;28;20040;-75
2021/10/22 08:10:45;;;;;;;20.85;14.02;;;;;;;14.71;54.76;95826.84;5045408;28;20033;-73
2021/10/22 08:13:11;;;;;;;25.42;14.88;;;;;;;14.71;55.33;95826.84;5048739;28;20059;-75
2021/10/22 08:15:39;;;;;;;23.25;13.68;;;;;;;14.65;56.36;95824.94;5031454;28;20021;-74
2021/10/22 08:18:05;;;;;;;24.00;15.10;;;;;;;14.59;55.76;95820.28;5047369;28;20403;-76
2021/10/22 08:20:34;;;;;;;25.45;14.75;;;;;;;14.62;55.41;95819.09;5030251;28;20517;-75
2021/10/22 08:22:59;;;;;;;25.33;17.15;;;;;;;14.56;56.20;95816.13;5046254;28;20815;-75
2021/10/22 08:25:25;;;;;;;25.00;17.70;;;;;;;14.59;56.08;95810.34;5048665;28;20029;-76
2021/10/22 08:27:50;;;;;;;21.70;14.65;;;;;;;14.64;55.23;95817.03;5048749;28;20094;-75
2021/10/22 08:30:20;;;;;;;29.90;17.10;;;;;;;14.62;55.46;95819.09;5047048;28;20025;-76
2021/10/22 08:32:50;;;;;;;29.63;16.02;;;;;;;14.62;56.37;95813.69;5044487;28;20036;-75
2021/10/22 08:35:15;;;;;;;27.40;16.52;;;;;;;14.67;56.15;95811.25;5044166;28;20032;-75
2021/10/22 08:37:41;;;;;;;30.40;16.00;;;;;;;14.74;56.44;95816.69;5047828;28;20081;-76
2021/10/22 08:40:07;;;;;;;30.95;15.63;;;;;;;14.77;56.88;95819.00;5047237;28;20025;-76
2021/10/22 08:42:32;;;;;;;27.52;14.88;;;;;;;14.81;56.16;95817.63;5046708;28;20021;-76
2021/10/22 08:44:58;;;;;;;41.78;16.55;;;;;;;14.81;55.78;95821.16;5047424;28;20369;-76
2021/10/22 08:47:30;;;;;;;28.80;14.57;;;;;;;14.78;55.89;95817.97;5048555;28;20523;-73
2021/10/22 08:49:59;;;;;;;26.92;15.57;;;;;;;14.65;55.91;95819.53;5048385;28;20078;-74
2021/10/22 08:52:26;;;;;;;30.52;15.43;;;;;;;14.75;55.83;95818.38;5046201;28;20028;-75
2021/10/22 08:54:52;;;;;;;30.00;15.00;;;;;;;14.74;55.75;95819.38;5047825;28;20372;-75
2021/10/22 08:57:17;;;;;;;25.25;15.45;;;;;;;14.82;56.30;95813.88;5047765;28;20047;-76
2021/10/22 08:59:43;;;;;;;30.33;15.90;;;;;;;14.83;56.35;95810.16;5048522;28;20029;-76
2021/10/22 09:02:20;;;;;;;30.90;17.05;;;;;;;14.79;56.54;95809.72;5045758;28;20017;-75
2021/10/22 09:04:46;;;;;;;27.92;16.55;;;;;;;14.91;56.88;95807.31;5047019;28;20048;-75
2021/10/22 09:07:12;;;;;;;28.17;15.38;;;;;;;14.92;56.18;95798.19;5030733;28;20029;-75
2021/10/22 09:09:39;;;;;;;25.92;15.73;;;;;;;14.94;56.14;95806.91;5030555;28;20051;-74
2021/10/22 09:12:05;;;;;;;26.08;15.13;;;;;;;14.91;55.55;95806.50;5045325;28;20502;-73
2021/10/22 09:14:30;;;;;;;25.95;15.27;;;;;;;14.88;55.37;95799.59;5045952;28;20021;-73
2021/10/22 09:16:56;;;;;;;21.75;14.55;;;;;;;14.90;55.66;95800.25;5047969;28;20483;-74
2021/10/22 09:19:33;;;;;;;21.45;15.30;;;;;;;14.89;55.38;95795.88;5047335;28;20032;-74
2021/10/22 09:22:23;;;;;;;26.35;14.77;;;;;;;14.92;55.09;95800.91;5044931;28;20021;-74
2021/10/22 09:24:55;;;;;;;27.05;14.90;;;;;;;14.98;55.62;95799.25;5047481;28;20033;-77
2021/10/22 09:27:54;;;;;;;29.48;16.20;;;;;;;14.97;54.79;95796.75;5035825;28;20044;-75
2021/10/22 09:30:22;;;;;;;25.58;16.20;;;;;;;15.00;54.83;95799.06;5032250;28;20099;-75
2021/10/22 09:32:48;;;;;;;25.65;15.15;;;;;;;14.94;54.79;95795.28;5037055;28;20518;-74
2021/10/22 09:35:15;;;;;;;27.13;14.98;;;;;;;14.98;54.97;95791.16;5036431;28;20025;-76
2021/10/22 09:37:42;;;;;;;28.95;16.45;;;;;;;15.07;55.70;95789.16;5046399;28;20032;-76
2021/10/22 09:40:08;;;;;;;27.48;15.57;;;;;;;15.25;55.47;95790.53;5045279;28;20028;-73
2021/10/22 09:42:34;;;;;;;21.25;15.15;;;;;;;15.34;54.45;95792.03;5045725;28;20415;-74
2021/10/22 09:44:59;;;;;;;20.75;14.18;;;;;;;15.44;54.35;95795.19;5045248;28;20037;-75
2021/10/22 09:47:25;;;;;;;21.10;13.90;;;;;;;15.58;54.52;95784.47;5045945;28;20021;-74
2021/10/22 09:49:52;;;;;;;22.17;13.82;;;;;;;15.68;54.15;95779.56;5045574;28;20055;-74
2021/10/22 09:52:27;;;;;;;23.13;13.80;;;;;;;15.87;54.30;95776.28;5044353;28;20079;-75
2021/10/22 09:55:26;;;;;;;20.83;14.32;;;;;;;15.98;53.41;95783.00;5007145;28;20389;-76
2021/10/22 09:58:05;;;;;;;21.15;13.88;;;;;;;16.14;53.17;95773.69;5036582;28;20031;-74
2021/10/22 10:00:34;;;;;;;20.75;12.27;;;;;;;16.21;52.96;95768.28;5037154;28;20546;-74
2021/10/22 10:03:01;;;;;;;19.83;13.57;;;;;;;16.23;53.30;95766.22;5044959;28;20114;-75
2021/10/22 10:05:26;;;;;;;21.27;13.52;;;;;;;16.40;53.28;95766.66;5034964;28;20045;-77
2021/10/22 10:07:52;;;;;;;21.85;14.18;;;;;;;16.55;52.78;95761.91;5011496;28;20029;-75
2021/10/22 10:10:17;;;;;;;20.42;14.10;;;;;;;16.72;53.25;95758.78;5019666;28;20039;-74
2021/10/22 10:12:43;;;;;;;21.35;14.07;;;;;;;16.75;52.24;95752.13;5046682;28;20029;-75
2021/10/22 10:15:10;;;;;;;22.98;13.57;;;;;;;16.85;52.21;95751.69;5043745;28;20170;-76
2021/10/22 10:17:37;;;;;;;21.55;13.95;;;;;;;16.90;51.98;95747.34;5026757;28;20371;-76
2021/10/22 10:20:03;;;;;;;29.33;14.95;;;;;;;17.05;51.71;95751.69;5010679;28;20034;-75
2021/10/22 10:22:29;;;;;;;17.00;11.65;;;;;;;17.14;50.45;95745.03;5030772;28;20115;-76
2021/10/22 10:25:03;;;;;;;19.98;11.95;;;;;;;17.18;50.69;95737.31;5024235;28;20021;-74
2021/10/22 10:27:29;;;;;;;19.70;12.40;;;;;;;17.30;51.94;95740.19;5040114;28;20024;-75
2021/10/22 10:30:00;;;;;;;21.30;11.85;;;;;;;17.29;52.06;95743.97;5022794;28;20033;-74
2021/10/22 10:32:27;;;;;;;19.90;12.05;;;;;;;17.34;51.14;95741.47;5035979;28;20120;-73
2021/10/22 10:35:00;;;;;;;18.70;12.68;;;;;;;17.41;52.13;95736.03;5036726;28;20028;-74
2021/10/22 10:37:37;;;;;;;15.18;10.98;;;;;;;17.47;51.40;95732.47;5042660;28;20086;-76
2021/10/22 10:40:22;;;;;;;14.32;10.52;;;;;;;17.55;51.83;95736.81;5026851;28;20382;-75
2021/10/22 10:42:57;;;;;;;21.98;10.90;;;;;;;17.58;50.68;95728.25;5034309;28;20040;-75
2021/10/22 10:45:26;;;;;;;13.77;9.20;;;;;;;17.62;50.11;95726.75;5041803;28;20021;-75
2021/10/22 10:47:58;;;;;;;16.70;10.02;;;;;;;17.68;50.38;95725.09;5046106;28;20056;-75
2021/10/22 10:50:52;;;;;;;19.10;10.73;;;;;;;17.71;49.97;95715.66;5044383;28;20423;-76
2021/10/22 10:53:38;;;;;;;13.25;9.27;;;;;;;17.73;49.59;95706.28;5045117;28;20090;-74
2021/10/22 10:56:32;;;;;;;10.30;7.05;;;;;;;17.80;49.58;95703.53;5046492;28;20035;-76
2021/10/22 10:58:57;;;;;;;8.88;6.75;;;;;;;17.78;49.32;95701.03;5044148;28;20535;-74
2021/10/22 11:01:27;;;;;;;8.48;6.63;;;;;;;17.84;49.51;95695.78;5041649;28;20446;-76
2021/10/22 11:03:53;;;;;;;11.02;6.97;;;;;;;17.83;49.41;95694.13;5027023;28;20515;-75
2021/10/22 11:06:28;;;;;;;9.15;6.80;;;;;;;17.86;49.03;95686.38;5044798;28;20086;-74
2021/10/22 11:08:53;;;;;;;11.90;6.63;;;;;;;17.90;49.00;95679.47;5045951;28;20104;-76
2021/10/22 11:11:26;;;;;;;10.45;6.43;;;;;;;17.92;48.70;95685.53;5019690;28;20033;-75
2021/10/22 11:13:55;;;;;;;9.80;6.13;;;;;;;18.00;49.42;95678.16;5037657;28;20124;-76
2021/10/22 11:16:21;;;;;;;7.50;6.00;;;;;;;18.02;48.65;95671.47;5038399;28;20060;-75
2021/10/22 11:19:07;;;;;;;7.80;5.90;;;;;;;18.09;48.71;95668.72;5040426;28;20415;-75
2021/10/22 11:21:40;;;;;;;11.18;6.25;;;;;;;18.19;48.62;95664.72;5037899;28;20469;-75
2021/10/22 11:24:06;;;;;;;10.77;5.85;;;;;;;18.22;47.78;95664.28;5029656;28;20036;-76
2021/10/22 11:26:35;;;;;;;7.05;5.55;;;;;;;18.24;47.76;95667.59;5041053;28;20438;-75